METAR AND TAF INFORMATION
METAR FOR OISS
ADDS - METARS form results

(1025 UTC 21 January 2019)
Data provider http://aviationweather.gov/metar/data/
 
METAR text: OISS 211000Z 18004KT CAVOK 11/M10 Q1020 A3012
Conditions at: OISS (SHIRAZ (CIV/AFB), IR) observed 1000 UTC 21 January 2019
Temperature: 11.0°C (52°F)
Dewpoint: -10.0°C (14°F) [RH = 22%]
Pressure (altimeter): 30.12 inches Hg (1020.0 mb)
Winds: from the S (180 degrees) at 5 MPH (4 knots; 2.1 m/s)
Visibility: 6 or more miles (10+ km)
Ceiling: ceiling and visibility are OK
Clouds: unknown
Weather: no significant weather observed at this time

METAR text: OISS 210950Z 18004KT CAVOK 11/M10 Q1020 A3012 NOSIG
Conditions at: OISS (SHIRAZ (CIV/AFB), IR) observed 0950 UTC 21 January 2019
Temperature: 11.0°C (52°F)
Dewpoint: -10.0°C (14°F) [RH = 22%]
Pressure (altimeter): 30.12 inches Hg (1020.0 mb)
Winds: from the S (180 degrees) at 5 MPH (4 knots; 2.1 m/s)
Visibility: 6 or more miles (10+ km)
Ceiling: ceiling and visibility are OK
Clouds: unknown
Weather: no significant weather observed at this time

METAR text: OISS 210930Z 09004KT CAVOK 11/M11 Q1020 A3014
Conditions at: OISS (SHIRAZ (CIV/AFB), IR) observed 0930 UTC 21 January 2019
Temperature: 11.0°C (52°F)
Dewpoint: -11.0°C (12°F) [RH = 20%]
Pressure (altimeter): 30.12 inches Hg (1020.0 mb)
Winds: from the E (90 degrees) at 5 MPH (4 knots; 2.1 m/s)
Visibility: 6 or more miles (10+ km)
Ceiling: ceiling and visibility are OK
Clouds: unknown
Weather: no significant weather observed at this time

Forecast for: COR
Text: TAF COR OISS 210550Z 2106/2212 27006KT CAVOK
Forecast period: 0600 UTC 21 January 2019 to 1200 UTC 22 January 2019
Forecast type: FROM: standard forecast or significant change
Winds: from the W (270 degrees) at 7 MPH (6 knots; 3.1 m/s)
Visibility: 6 or more miles 10+ km)
Ceiling: unknown
Clouds: missing
Weather: NSW  (no significant weather)

 AIRPORT MAP

 RUNWAY INFORMATION
Runway 11L Runway length 14345 ft Runway width 148 ft
Runway elevation 4910 ft Runway displaced threshold 0 ft Runway heading 114
Runway 29R Runway length 14345 ft Runway width 148 ft
Runway elevation 4862 ft Runway displaced threshold 0 ft Runway heading 294
Runway 11R Runway length 14051 ft Runway width 148 ft
Runway elevation 4920 ft Runway displaced threshold 0 ft Runway heading 114
Runway 29L Runway length 14051 ft Runway width 148 ft
Runway elevation 4864 ft Runway displaced threshold 0 ft Runway heading 294

 AIRPORT FREQUENCIES
Type APP Name APP Frequency 34.4 MHZ
Type APP Name APP Frequency 119 MHZ
Type ATIS Name ATIS Frequency 127 MHZ
Type TWR Name TWR Frequency 118.1 MHZ

 AIRPORT NEAR NAVIGATION AIDS
Type NDB Name Shiraz Shahid Dastghaib Frequency 205 KHZ
Type TACAN Name Shiraz Shahid Dastghaib Frequency 114700 KHZ
Type VOR-DME Name Shiraz Shahid Dastghaib Frequency 117800 KHZ



Copyright © 2007-2018 Istanbul Virtual Airlines.All rights reserved.Developed by Arca Erdik and Aykut Alp Kurt.